CheckWX is a tool to help pilots better visualize weather data.  It is not intended as a substitute for an official pre-flight weather briefing.

07:01:20 UTC

KVIS TAF
Visalia Municipal Airport
Visalia, California, USA
KVIS 210520Z 2106/2206 VRB04KT P6SM SKC

Sep-21@
06:00 UTC

Sep-21 @ 06:00 UTC

Sep-22@
06:00 UTC

Sep-22 @ 06:00 UTC

KVIS 210520Z 2106/2206 VRB04KT P6SM SKC
Wind
  • Variable at 4 KTS
Cloud Levels
  • Clear skies